Time;durP1;ratioP1;P1;durP2;ratioP2;P2;SDS_P1;SDS_P2;PMS_P1;PMS_P2;Temp;Humidity;BMP_temperature;BMP_pressure;BME280_temperature;BME280_humidity;BME280_pressure;Samples;Min_cycle;Max_cycle;Signal;HPM_P1;HPM_P2
2023/06/24 00:00:06;;;;;;;11.60;9.35;;;15.00;99.90;;;;;;5028154;28;20590;-76
2023/06/24 00:02:35;;;;;;;11.02;9.73;;;15.00;99.90;;;;;;5045063;28;20174;-80
2023/06/24 00:05:03;;;;;;;10.15;8.82;;;15.00;99.90;;;;;;5046078;28;20264;-79
2023/06/24 00:07:29;;;;;;;10.95;9.80;;;14.90;99.90;;;;;;5045845;28;20292;-76
2023/06/24 00:09:54;;;;;;;10.23;9.32;;;14.90;99.90;;;;;;5045779;28;20727;-76
2023/06/24 00:12:20;;;;;;;10.48;9.48;;;14.80;99.90;;;;;;5045330;28;20182;-75
2023/06/24 00:14:50;;;;;;;11.70;10.50;;;14.80;99.90;;;;;;5045697;28;20186;-75
2023/06/24 00:17:16;;;;;;;10.43;9.35;;;14.70;1.00;;;;;;5045605;28;20653;-77
2023/06/24 00:19:43;;;;;;;13.70;10.75;;;14.70;1.00;;;;;;5045958;28;20186;-76
2023/06/24 00:22:09;;;;;;;11.45;10.35;;;14.80;96.70;;;;;;5045194;28;20212;-76
2023/06/24 00:24:35;;;;;;;11.32;10.23;;;14.70;99.90;;;;;;5045783;28;20689;-75
2023/06/24 00:27:00;;;;;;;11.02;9.98;;;14.70;99.90;;;;;;5045720;28;20228;-77
2023/06/24 00:29:26;;;;;;;13.15;11.25;;;14.80;99.90;;;;;;5045735;28;20209;-76
2023/06/24 00:31:51;;;;;;;13.00;10.52;;;14.70;1.00;;;;;;5045056;28;20240;-76
2023/06/24 00:34:19;;;;;;;11.32;10.02;;;14.70;1.00;;;;;;5045889;28;20731;-76
2023/06/24 00:36:46;;;;;;;13.68;10.63;;;14.60;32.90;;;;;;5045558;28;20194;-79
2023/06/24 00:39:12;;;;;;;14.02;10.85;;;14.70;1.00;;;;;;5045424;28;20213;-75
2023/06/24 00:41:38;;;;;;;10.98;9.80;;;14.70;1.00;;;;;;5041521;28;20681;-77
2023/06/24 00:44:03;;;;;;;11.13;10.13;;;14.70;99.90;;;;;;5045275;28;20194;-75
2023/06/24 00:46:31;;;;;;;11.20;10.20;;;14.70;1.00;;;;;;5027044;28;20210;-73
2023/06/24 00:48:57;;;;;;;12.13;10.20;;;14.70;99.90;;;;;;5045372;28;20277;-77
2023/06/24 00:51:30;;;;;;;13.02;10.68;;;14.60;99.90;;;;;;5044416;28;20241;-76
2023/06/24 00:53:56;;;;;;;12.68;10.18;;;14.70;99.90;;;;;;5045422;28;20189;-79
2023/06/24 00:56:31;;;;;;;12.40;11.10;;;14.70;99.90;;;;;;5027271;28;20210;-77
2023/06/24 00:59:01;;;;;;;11.27;10.05;;;14.60;1.00;;;;;;5045265;28;20193;-78
2023/06/24 01:01:33;;;;;;;11.63;10.50;;;14.60;1.00;;;;;;5044572;28;20182;-77
2023/06/24 01:03:59;;;;;;;11.60;10.50;;;14.50;99.90;;;;;;5045208;28;20685;-76
2023/06/24 01:06:28;;;;;;;11.80;10.60;;;14.50;1.00;;;;;;5045081;28;20252;-77
2023/06/24 01:08:59;;;;;;;12.18;11.05;;;14.40;1.00;;;;;;5045222;28;20684;-77
2023/06/24 01:11:27;;;;;;;11.60;10.13;;;14.40;1.00;;;;;;5044671;28;20657;-79
2023/06/24 01:13:53;;;;;;;12.63;10.70;;;14.40;1.00;;;;;;5045028;28;20217;-77
2023/06/24 01:16:52;;;;;;;13.30;11.07;;;14.40;99.90;;;;;;5044579;28;20221;-76
2023/06/24 01:20:12;;;;;;;11.85;10.30;;;14.50;1.00;;;;;;5044927;28;20197;-76
2023/06/24 01:22:46;;;;;;;12.27;11.07;;;14.50;1.00;;;;;;4978039;28;20230;-75
2023/06/24 01:26:05;;;;;;;12.65;11.27;;;14.50;99.90;;;;;;4971802;28;20193;-77
2023/06/24 01:29:06;;;;;;;12.55;11.30;;;14.40;12.10;;;;;;5028317;28;20614;-76
2023/06/24 01:32:28;;;;;;;13.32;10.80;;;14.50;1.00;;;;;;5001992;28;20189;-75
2023/06/24 01:35:06;;;;;;;11.48;10.38;;;14.50;1.00;;;;;;5028228;28;20202;-77
2023/06/24 01:37:34;;;;;;;11.10;10.00;;;14.40;1.00;;;;;;5043966;28;20208;-78
2023/06/24 01:40:27;;;;;;;13.45;10.73;;;14.60;99.90;;;;;;5045015;28;20549;-75
2023/06/24 01:42:54;;;;;;;12.82;11.50;;;14.40;99.90;;;;;;5044671;28;20189;-78
2023/06/24 01:45:35;;;;;;;12.18;10.93;;;14.40;1.00;;;;;;5044700;28;20186;-74
2023/06/24 01:48:13;;;;;;;12.30;10.88;;;14.50;99.90;;;;;;5044884;28;20178;-78
2023/06/24 01:50:42;;;;;;;16.20;12.27;;;14.40;99.90;;;;;;5045653;28;20597;-76
2023/06/24 01:53:08;;;;;;;12.50;10.82;;;14.40;99.90;;;;;;5048765;28;20182;-75
2023/06/24 01:55:37;;;;;;;12.55;11.25;;;14.50;1.00;;;;;;5048205;28;20544;-78
2023/06/24 01:58:07;;;;;;;12.10;10.73;;;14.40;99.90;;;;;;5048292;28;20718;-75
2023/06/24 02:00:34;;;;;;;11.88;10.68;;;14.30;99.90;;;;;;5047731;28;20711;-76
2023/06/24 02:03:01;;;;;;;14.13;12.63;;;14.40;66.60;;;;;;5048495;28;20251;-77
2023/06/24 02:05:27;;;;;;;13.05;11.80;;;14.20;1.00;;;;;;5048489;28;20257;-75
2023/06/24 02:07:55;;;;;;;13.52;12.13;;;14.30;99.90;;;;;;5048434;28;20186;-75
2023/06/24 02:10:21;;;;;;;13.07;11.73;;;14.20;99.90;;;;;;5048725;28;20218;-76
2023/06/24 02:12:50;;;;;;;16.33;13.63;;;14.20;81.90;;;;;;5048045;28;20181;-76
2023/06/24 02:15:18;;;;;;;14.23;12.27;;;14.20;99.90;;;;;;5048204;28;20264;-77
2023/06/24 02:17:44;;;;;;;13.00;11.73;;;14.10;99.90;;;;;;5048181;28;20194;-76
2023/06/24 02:20:10;;;;;;;14.95;12.05;;;14.10;99.90;;;;;;5048476;28;20185;-77
2023/06/24 02:22:39;;;;;;;15.48;13.90;;;14.20;1.00;;;;;;5047658;28;20205;-77
2023/06/24 02:25:06;;;;;;;15.88;13.75;;;14.10;1.00;;;;;;5047927;28;20653;-76
2023/06/24 02:27:34;;;;;;;15.30;13.00;;;14.00;99.90;;;;;;5047286;28;20268;-77
2023/06/24 02:30:02;;;;;;;15.38;13.77;;;14.00;1.00;;;;;;5048223;28;20184;-77
2023/06/24 02:32:27;;;;;;;12.55;11.25;;;13.90;99.90;;;;;;5047400;28;20182;-76
2023/06/24 02:34:53;;;;;;;15.00;13.25;;;13.90;1.00;;;;;;5047913;28;20732;-75
2023/06/24 02:37:20;;;;;;;15.20;13.70;;;13.90;1.00;;;;;;5038697;28;20224;-75
2023/06/24 02:39:45;;;;;;;14.35;11.50;;;14.00;1.00;;;;;;5047144;28;20980;-75
2023/06/24 02:42:11;;;;;;;13.02;11.50;;;14.00;70.10;;;;;;5046322;28;20273;-79
2023/06/24 02:44:39;;;;;;;15.55;12.73;;;14.00;99.90;;;;;;5047288;28;20193;-76
2023/06/24 02:47:09;;;;;;;14.13;12.25;;;14.00;1.00;;;;;;5047235;28;20213;-77
2023/06/24 02:49:36;;;;;;;16.08;13.18;;;13.80;1.00;;;;;;5046457;28;20636;-76
2023/06/24 02:52:02;;;;;;;14.95;12.88;;;13.80;99.90;;;;;;5046269;28;20600;-76
2023/06/24 02:54:29;;;;;;;16.02;12.95;;;13.70;1.00;;;;;;5046639;28;20228;-74
2023/06/24 02:56:57;;;;;;;13.45;12.13;;;13.80;99.90;;;;;;5046346;28;20697;-77
2023/06/24 02:59:24;;;;;;;13.38;12.02;;;13.80;1.00;;;;;;5046237;28;20264;-77
2023/06/24 03:01:50;;;;;;;13.63;12.25;;;13.70;99.90;;;;;;5045628;28;20547;-76
2023/06/24 03:04:18;;;;;;;16.20;13.15;;;13.70;1.00;;;;;;5046309;28;20661;-76
2023/06/24 03:06:45;;;;;;;14.27;12.13;;;13.70;99.90;;;;;;5046848;28;20244;-77
2023/06/24 03:09:11;;;;;;;14.63;12.05;;;13.70;1.00;;;;;;5046467;28;20175;-77
2023/06/24 03:11:43;;;;;;;14.30;12.80;;;13.90;1.00;;;;;;5045969;28;20178;-76
2023/06/24 03:14:12;;;;;;;15.20;12.30;;;13.80;1.00;;;;;;5046031;28;20634;-75
2023/06/24 03:16:38;;;;;;;17.75;12.20;;;13.70;1.00;;;;;;5046093;28;20214;-76
2023/06/24 03:19:04;;;;;;;13.55;12.23;;;13.80;1.00;;;;;;5046568;28;20189;-76
2023/06/24 03:21:31;;;;;;;12.75;11.50;;;13.80;73.80;;;;;;5045999;28;20269;-76
2023/06/24 03:23:58;;;;;;;14.65;12.48;;;13.80;1.00;;;;;;5046107;28;20193;-77
2023/06/24 03:26:34;;;;;;;14.70;12.68;;;13.80;1.00;;;;;;5045992;28;20224;-75
2023/06/24 03:29:00;;;;;;;15.50;12.80;;;13.80;99.90;;;;;;5046103;28;20209;-75
2023/06/24 03:31:26;;;;;;;14.35;12.50;;;13.80;99.90;;;;;;5045315;28;20265;-76
2023/06/24 03:33:52;;;;;;;13.65;12.25;;;13.90;1.00;;;;;;5046042;28;20328;-75
2023/06/24 03:36:17;;;;;;;14.13;12.02;;;13.80;1.00;;;;;;5046061;28;20672;-75
2023/06/24 03:38:43;;;;;;;13.32;11.95;;;13.80;99.90;;;;;;5046149;28;20200;-75
2023/06/24 03:41:08;;;;;;;14.25;12.15;;;13.90;1.00;;;;;;5045253;28;20261;-76
2023/06/24 03:43:34;;;;;;;13.02;11.70;;;13.90;99.90;;;;;;5045623;28;20212;-76
2023/06/24 03:46:00;;;;;;;13.13;10.95;;;14.00;1.00;;;;;;5045442;28;20946;-75
2023/06/24 03:48:26;;;;;;;16.05;12.77;;;14.00;1.00;;;;;;5045796;28;20259;-75
2023/06/24 03:50:51;;;;;;;12.88;11.20;;;14.10;1.00;;;;;;5044402;28;20700;-76
2023/06/24 03:53:17;;;;;;;13.18;11.30;;;14.10;1.00;;;;;;5045766;28;20633;-76
2023/06/24 03:55:42;;;;;;;13.25;11.65;;;14.10;1.00;;;;;;5044219;28;20217;-76
2023/06/24 03:58:08;;;;;;;13.30;11.32;;;14.10;1.00;;;;;;5044640;28;20643;-77
2023/06/24 04:00:34;;;;;;;13.02;11.57;;;14.00;1.00;;;;;;5044239;28;20186;-75
2023/06/24 04:03:02;;;;;;;13.00;11.65;;;14.00;1.00;;;;;;5044181;28;20218;-75
2023/06/24 04:05:28;;;;;;;12.63;11.32;;;14.00;99.90;;;;;;5045493;28;20193;-75
2023/06/24 04:07:54;;;;;;;14.25;11.02;;;14.10;99.90;;;;;;5045022;28;20175;-76
2023/06/24 04:10:19;;;;;;;14.25;11.48;;;14.20;99.90;;;;;;5045445;28;20213;-76
2023/06/24 04:12:46;;;;;;;13.95;11.85;;;14.30;53.40;;;;;;5044185;28;20232;-75
2023/06/24 04:15:11;;;;;;;12.88;11.57;;;14.30;99.90;;;;;;5027575;28;20550;-76
2023/06/24 04:17:37;;;;;;;12.43;11.13;;;14.30;1.00;;;;;;5045276;28;20217;-75
2023/06/24 04:20:09;;;;;;;13.35;12.05;;;14.40;1.00;;;;;;5045628;28;20251;-76
2023/06/24 04:22:37;;;;;;;11.30;10.10;;;14.40;1.00;;;;;;5026198;28;20186;-77
2023/06/24 04:25:05;;;;;;;14.38;11.75;;;14.40;1.00;;;;;;5044944;28;20791;-77
2023/06/24 04:27:32;;;;;;;13.48;11.55;;;14.50;99.90;;;;;;5044397;28;20645;-76
2023/06/24 04:29:57;;;;;;;14.70;11.95;;;14.60;99.90;;;;;;5044950;28;20184;-76
2023/06/24 04:32:23;;;;;;;12.95;11.15;;;14.70;99.90;;;;;;5044219;28;20644;-76
2023/06/24 04:34:48;;;;;;;12.38;11.07;;;14.70;1.00;;;;;;5045210;28;20226;-76
2023/06/24 04:37:14;;;;;;;12.43;11.23;;;14.80;1.00;;;;;;5044741;28;20285;-77
2023/06/24 04:39:40;;;;;;;12.93;11.02;;;14.80;1.00;;;;;;5045034;28;20200;-76
2023/06/24 04:42:05;;;;;;;12.65;11.35;;;14.90;1.00;;;;;;5043894;28;20209;-76
2023/06/24 04:44:31;;;;;;;13.85;11.38;;;15.00;99.90;;;;;;5044748;28;20178;-75
2023/06/24 04:46:56;;;;;;;12.32;11.18;;;15.10;1.00;;;;;;5044171;28;20332;-77
2023/06/24 04:49:22;;;;;;;12.52;11.23;;;15.30;99.90;;;;;;5045037;28;20183;-76
2023/06/24 04:51:48;;;;;;;12.45;11.15;;;15.20;46.90;;;;;;5044053;28;20182;-75
2023/06/24 04:54:13;;;;;;;12.05;10.95;;;15.40;1.00;;;;;;5044787;28;20710;-75
2023/06/24 04:56:39;;;;;;;12.18;10.98;;;15.50;99.90;;;;;;5044438;28;20209;-75
2023/06/24 04:59:05;;;;;;;9.30;8.18;;;16.00;1.00;;;;;;5044738;28;20289;-77
2023/06/24 05:01:31;;;;;;;10.20;8.77;;;17.10;1.00;;;;;;5044326;28;20293;-74
2023/06/24 05:03:56;;;;;;;7.90;7.10;;;18.80;1.00;;;;;;5044984;28;20186;-77
2023/06/24 05:06:22;;;;;;;10.63;7.80;;;20.30;99.90;;;;;;5044881;28;20210;-76
2023/06/24 05:08:47;;;;;;;7.03;6.32;;;21.30;99.90;;;;;;5044952;28;20660;-76
2023/06/24 05:11:13;;;;;;;6.93;6.22;;;22.60;1.00;;;;;;5044941;28;20624;-76
2023/06/24 05:13:40;;;;;;;7.53;6.30;;;23.70;1.00;;;;;;5045148;28;20182;-76
2023/06/24 05:16:05;;;;;;;6.38;5.75;;;24.70;1.00;;;;;;5045057;28;20232;-76
2023/06/24 05:18:31;;;;;;;6.72;6.03;;;25.10;1.00;;;;;;5045593;28;20268;-76
2023/06/24 05:20:56;;;;;;;7.85;5.95;;;25.70;1.00;;;;;;5044861;28;20221;-76
2023/06/24 05:23:22;;;;;;;6.57;5.95;;;26.10;1.00;;;;;;5045132;28;20186;-76
2023/06/24 05:25:47;;;;;;;7.90;5.70;;;26.40;1.00;;;;;;5048972;28;20800;-76
2023/06/24 05:28:13;;;;;;;7.28;6.68;;;26.40;1.00;;;;;;5048004;28;20617;-77
2023/06/24 05:30:39;;;;;;;7.00;6.30;;;26.60;1.00;;;;;;5049094;28;20228;-76
2023/06/24 05:33:04;;;;;;;5.85;5.35;;;26.70;1.00;;;;;;5048352;28;20228;-77
2023/06/24 05:35:30;;;;;;;6.55;5.85;;;26.80;1.00;;;;;;5048947;28;20564;-76
2023/06/24 05:37:55;;;;;;;5.93;5.43;;;27.10;1.00;;;;;;5048570;28;20186;-76
2023/06/24 05:40:22;;;;;;;7.43;6.68;;;27.60;1.00;;;;;;5048475;28;20604;-76
2023/06/24 05:42:48;;;;;;;6.55;5.95;;;27.80;1.00;;;;;;5047921;28;20212;-76
2023/06/24 05:45:13;;;;;;;6.25;5.30;;;27.70;1.00;;;;;;5048526;28;20182;-76
2023/06/24 05:47:41;;;;;;;7.60;5.32;;;27.70;1.00;;;;;;5048313;28;20213;-76
2023/06/24 05:50:07;;;;;;;5.63;5.10;;;28.20;1.00;;;;;;5030542;28;20197;-76
2023/06/24 05:52:32;;;;;;;7.90;5.82;;;28.50;1.00;;;;;;5047598;28;20178;-77
2023/06/24 05:54:58;;;;;;;7.55;5.97;;;28.60;1.00;;;;;;5048296;28;20182;-76
2023/06/24 05:57:24;;;;;;;6.88;5.18;;;28.90;1.00;;;;;;5047917;28;20205;-76
2023/06/24 05:59:49;;;;;;;6.70;5.63;;;29.20;1.00;;;;;;5048337;28;20638;-76
2023/06/24 06:02:15;;;;;;;7.15;6.05;;;29.00;1.00;;;;;;5048051;28;20182;-75
2023/06/24 06:04:40;;;;;;;7.47;6.20;;;29.20;1.00;;;;;;5048344;28;20189;-75
2023/06/24 06:07:06;;;;;;;5.95;5.45;;;29.10;1.00;;;;;;5047696;28;20209;-75
2023/06/24 06:09:32;;;;;;;6.03;5.50;;;29.20;1.00;;;;;;5048138;28;20190;-75
2023/06/24 06:11:57;;;;;;;6.50;5.88;;;29.10;1.00;;;;;;5045605;28;20646;-74
2023/06/24 06:14:23;;;;;;;7.40;6.22;;;29.60;1.00;;;;;;5042898;28;20190;-75
2023/06/24 06:16:49;;;;;;;7.50;6.22;;;29.40;1.00;;;;;;5047334;28;20316;-74
2023/06/24 06:19:15;;;;;;;5.85;5.35;;;29.60;1.00;;;;;;5047761;28;20193;-75
2023/06/24 06:21:41;;;;;;;5.95;5.32;;;30.00;1.00;;;;;;5047517;28;20190;-74
2023/06/24 06:24:06;;;;;;;7.20;6.50;;;30.30;1.00;;;;;;5046649;28;20194;-75
2023/06/24 06:26:32;;;;;;;6.25;5.63;;;30.10;1.00;;;;;;5047281;28;20217;-75
2023/06/24 06:28:58;;;;;;;6.63;6.03;;;29.30;1.00;;;;;;5047616;28;20302;-75
2023/06/24 06:31:25;;;;;;;6.80;6.20;;;29.20;1.00;;;;;;5046925;28;20192;-74
2023/06/24 06:33:51;;;;;;;6.75;6.15;;;29.20;1.00;;;;;;5047221;28;20170;-75
2023/06/24 06:36:17;;;;;;;7.40;6.70;;;28.90;1.00;;;;;;5044567;28;20685;-74
2023/06/24 06:38:44;;;;;;;6.95;6.35;;;29.00;1.00;;;;;;5045313;28;20557;-75
2023/06/24 06:41:09;;;;;;;7.75;6.03;;;28.40;1.00;;;;;;5026493;28;20194;-74
2023/06/24 06:43:35;;;;;;;6.68;6.07;;;28.90;1.00;;;;;;5028134;28;20193;-74
2023/06/24 06:46:01;;;;;;;6.28;5.68;;;29.20;1.00;;;;;;5045900;28;20201;-75
2023/06/24 06:48:26;;;;;;;5.85;5.30;;;29.50;1.00;;;;;;5046156;28;20178;-74
2023/06/24 06:50:53;;;;;;;5.80;5.30;;;30.30;1.00;;;;;;5041701;28;20799;-74
2023/06/24 06:53:19;;;;;;;6.03;5.53;;;30.70;1.00;;;;;;5044426;28;20205;-74
2023/06/24 06:55:44;;;;;;;5.82;4.93;;;31.80;1.00;;;;;;5044411;28;20628;-74
2023/06/24 06:58:10;;;;;;;5.50;5.00;;;31.80;1.00;;;;;;5035631;28;20180;-77
2023/06/24 07:00:36;;;;;;;5.65;5.18;;;32.20;1.00;;;;;;5042515;28;20241;-75
2023/06/24 07:03:02;;;;;;;6.35;5.50;;;32.80;1.00;;;;;;5044732;28;20650;-74
2023/06/24 07:05:27;;;;;;;5.45;4.95;;;32.20;1.00;;;;;;5045102;28;20189;-76
2023/06/24 07:07:53;;;;;;;5.55;5.15;;;32.20;1.00;;;;;;5044275;28;20210;-74
2023/06/24 07:10:19;;;;;;;7.15;5.80;;;33.00;1.00;;;;;;5045448;28;20233;-75
2023/06/24 07:12:45;;;;;;;5.15;4.65;;;32.60;1.00;;;;;;5045915;28;20244;-77
2023/06/24 07:15:11;;;;;;;6.03;5.53;;;32.20;1.00;;;;;;5046259;28;20595;-75
2023/06/24 07:17:36;;;;;;;5.45;4.93;;;31.20;1.00;;;;;;5045937;28;20252;-75
2023/06/24 07:20:02;;;;;;;5.90;5.32;;;29.80;1.00;;;;;;5045882;28;20190;-75
2023/06/24 07:22:30;;;;;;;5.32;4.80;;;29.80;1.00;;;;;;5045278;28;20184;-74
2023/06/24 07:24:56;;;;;;;4.72;4.32;;;30.90;1.00;;;;;;5046137;28;20178;-74
2023/06/24 07:27:22;;;;;;;5.20;4.70;;;31.00;1.00;;;;;;5045849;28;20621;-75
2023/06/24 07:29:47;;;;;;;5.85;5.35;;;31.40;1.00;;;;;;5046715;28;20187;-74
2023/06/24 07:32:13;;;;;;;6.38;5.35;;;29.50;1.00;;;;;;5045897;28;20273;-74
2023/06/24 07:34:38;;;;;;;5.60;4.95;;;27.90;1.00;;;;;;5046334;28;20193;-74
2023/06/24 07:37:04;;;;;;;6.25;5.50;;;26.70;1.00;;;;;;5045668;28;20224;-74
2023/06/24 07:39:30;;;;;;;5.90;5.32;;;25.30;1.00;;;;;;5042457;28;20293;-75
2023/06/24 07:41:55;;;;;;;5.97;5.38;;;24.60;1.00;;;;;;5027018;28;20194;-75
2023/06/24 07:44:21;;;;;;;6.43;5.07;;;24.10;1.00;;;;;;5043510;28;20194;-78
2023/06/24 07:46:48;;;;;;;5.82;5.20;;;23.40;1.00;;;;;;5026374;28;20210;-74
2023/06/24 07:49:13;;;;;;;7.13;5.30;;;23.00;1.00;;;;;;5043531;28;20225;-76
2023/06/24 07:51:39;;;;;;;6.85;5.20;;;22.50;1.00;;;;;;5043625;28;20174;-77
2023/06/24 07:54:05;;;;;;;5.80;5.18;;;22.10;1.00;;;;;;5042916;28;20867;-75
2023/06/24 07:56:30;;;;;;;5.03;4.63;;;21.90;1.00;;;;;;5042594;28;20210;-75
2023/06/24 07:58:56;;;;;;;6.25;5.70;;;21.90;1.00;;;;;;5045350;28;20190;-75
2023/06/24 08:01:22;;;;;;;5.65;5.15;;;21.80;1.00;;;;;;5044725;28;20186;-75
2023/06/24 08:03:47;;;;;;;6.00;5.38;;;21.80;1.00;;;;;;5046070;28;20227;-74
2023/06/24 08:06:14;;;;;;;5.45;4.95;;;21.70;1.00;;;;;;5045332;28;20292;-75
2023/06/24 08:08:39;;;;;;;6.78;6.07;;;21.80;1.00;;;;;;5045605;28;20178;-76
2023/06/24 08:11:05;;;;;;;6.78;5.97;;;21.80;1.00;;;;;;5045305;28;20286;-76
2023/06/24 08:13:31;;;;;;;6.20;5.65;;;21.70;1.00;;;;;;5045106;28;20177;-75
2023/06/24 08:15:57;;;;;;;6.95;6.30;;;21.20;1.00;;;;;;5045096;28;20337;-76
2023/06/24 08:18:22;;;;;;;7.03;6.32;;;21.10;1.00;;;;;;5045687;28;20186;-76
2023/06/24 08:20:48;;;;;;;7.10;6.30;;;21.10;1.00;;;;;;5041203;28;20558;-75
2023/06/24 08:23:14;;;;;;;6.40;5.80;;;21.10;1.00;;;;;;5044100;28;20631;-77
2023/06/24 08:25:39;;;;;;;6.30;5.68;;;21.10;1.00;;;;;;5045366;28;20249;-75
2023/06/24 08:28:05;;;;;;;7.00;6.30;;;21.10;1.00;;;;;;5027342;28;20178;-76
2023/06/24 08:30:30;;;;;;;7.25;6.55;;;21.10;1.00;;;;;;5045524;28;20281;-75
2023/06/24 08:32:56;;;;;;;7.28;5.93;;;21.10;1.00;;;;;;5044657;28;20182;-76
2023/06/24 08:35:22;;;;;;;6.57;5.68;;;20.90;1.00;;;;;;5045502;28;20509;-75
2023/06/24 08:37:47;;;;;;;6.15;5.65;;;21.10;1.00;;;;;;5045636;28;20185;-76
2023/06/24 08:40:13;;;;;;;7.07;6.43;;;21.30;1.00;;;;;;5045606;28;20643;-75
2023/06/24 08:42:39;;;;;;;7.18;6.03;;;21.40;1.00;;;;;;5045165;28;20236;-74
2023/06/24 08:45:05;;;;;;;7.15;6.15;;;21.50;1.00;;;;;;5045844;28;20194;-74
2023/06/24 08:47:32;;;;;;;6.43;5.85;;;21.30;1.00;;;;;;5045958;28;20210;-76
2023/06/24 08:50:10;;;;;;;6.70;6.10;;;21.20;1.00;;;;;;5030518;28;20174;-75
2023/06/24 08:52:37;;;;;;;6.93;5.88;;;21.20;1.00;;;;;;5037623;28;20178;-75
2023/06/24 08:55:06;;;;;;;7.72;6.47;;;21.20;1.00;;;;;;5047941;28;20600;-76
2023/06/24 08:57:32;;;;;;;5.72;5.20;;;21.20;1.00;;;;;;5047448;28;20204;-75
2023/06/24 08:59:57;;;;;;;6.30;5.68;;;21.30;1.00;;;;;;5047041;28;20277;-77
2023/06/24 09:02:23;;;;;;;6.07;5.45;;;21.10;1.00;;;;;;5043328;28;20186;-77
2023/06/24 09:04:51;;;;;;;6.18;5.63;;;21.20;1.00;;;;;;5047186;28;20664;-76
2023/06/24 09:07:30;;;;;;;5.93;5.47;;;21.20;1.00;;;;;;5047728;28;20743;-74
2023/06/24 09:09:56;;;;;;;5.70;5.20;;;21.20;1.00;;;;;;5049393;28;20170;-75
2023/06/24 09:12:24;;;;;;;6.32;5.78;;;21.30;1.00;;;;;;5047088;28;20285;-75
2023/06/24 09:14:50;;;;;;;5.53;4.75;;;21.50;1.00;;;;;;5046134;28;20277;-74
2023/06/24 09:17:17;;;;;;;4.63;4.22;;;21.50;1.00;;;;;;5046721;28;20723;-76
2023/06/24 09:19:42;;;;;;;5.05;4.55;;;21.50;1.00;;;;;;5046479;28;20186;-75
2023/06/24 09:22:17;;;;;;;5.60;4.90;;;21.40;1.00;;;;;;5045636;28;21093;-75
2023/06/24 09:24:46;;;;;;;5.78;5.20;;;21.30;1.00;;;;;;5026525;28;21049;-75
2023/06/24 09:27:14;;;;;;;5.40;4.90;;;21.40;1.00;;;;;;5045185;28;20233;-74
2023/06/24 09:29:40;;;;;;;5.57;4.60;;;21.40;1.00;;;;;;5044786;28;20178;-74
2023/06/24 09:32:06;;;;;;;5.10;4.70;;;21.40;1.00;;;;;;5043703;28;20249;-74
2023/06/24 09:34:32;;;;;;;5.20;4.10;;;21.40;1.00;;;;;;5043251;28;20177;-74
2023/06/24 09:36:58;;;;;;;5.32;4.13;;;21.40;1.00;;;;;;5042408;28;20215;-77
2023/06/24 09:39:29;;;;;;;5.38;4.07;;;21.50;1.00;;;;;;5042985;28;20618;-75
2023/06/24 09:41:56;;;;;;;4.18;3.78;;;21.70;1.00;;;;;;5041911;28;20244;-74
2023/06/24 09:44:22;;;;;;;4.85;4.20;;;21.90;1.00;;;;;;5043760;28;20186;-75
2023/06/24 09:46:48;;;;;;;5.63;4.10;;;21.90;1.00;;;;;;5044996;28;20214;-76
2023/06/24 09:49:14;;;;;;;5.03;4.55;;;21.90;1.00;;;;;;5045077;28;20178;-75
2023/06/24 09:51:44;;;;;;;4.85;4.45;;;22.00;1.00;;;;;;5039092;28;20244;-75
2023/06/24 09:54:11;;;;;;;5.60;4.20;;;22.10;1.00;;;;;;5042374;28;20183;-73
2023/06/24 09:56:39;;;;;;;7.50;4.30;;;22.10;1.00;;;;;;5042608;28;20719;-73
2023/06/24 09:59:06;;;;;;;6.07;4.30;;;22.10;1.00;;;;;;5042040;28;20613;-74
2023/06/24 10:01:35;;;;;;;4.35;4.05;;;22.10;1.00;;;;;;5041578;28;20664;-74
2023/06/24 10:04:01;;;;;;;4.53;3.85;;;22.10;1.00;;;;;;5042096;28;20190;-75
2023/06/24 10:06:28;;;;;;;5.95;3.70;;;22.20;1.00;;;;;;5041990;28;20201;-74
2023/06/24 10:08:53;;;;;;;4.60;3.40;;;22.20;1.00;;;;;;5042341;28;20265;-74
2023/06/24 10:11:19;;;;;;;4.55;3.88;;;22.30;1.00;;;;;;5042731;28;20261;-73
2023/06/24 10:13:45;;;;;;;4.47;3.92;;;22.40;1.00;;;;;;5045736;28;20277;-73
2023/06/24 10:16:11;;;;;;;4.00;3.60;;;22.50;1.00;;;;;;5044677;28;20217;-75
2023/06/24 10:18:38;;;;;;;3.60;3.30;;;22.50;1.00;;;;;;5045586;28;20190;-74
2023/06/24 10:21:06;;;;;;;4.22;3.25;;;22.70;1.00;;;;;;5046238;28;20720;-74
2023/06/24 10:23:40;;;;;;;3.95;3.63;;;22.70;1.00;;;;;;5046832;28;20229;-74
2023/06/24 10:26:10;;;;;;;4.80;3.25;;;22.70;1.00;;;;;;5046493;28;20209;-74
2023/06/24 10:29:04;;;;;;;4.82;3.25;;;22.70;1.00;;;;;;5042728;28;20178;-76
2023/06/24 10:31:39;;;;;;;5.30;3.33;;;22.70;1.00;;;;;;5026012;28;20301;-75
2023/06/24 10:34:23;;;;;;;3.30;3.00;;;22.60;1.00;;;;;;5044366;28;20185;-74
2023/06/24 10:37:08;;;;;;;3.58;3.28;;;22.70;1.00;;;;;;5027864;28;20200;-75
2023/06/24 10:39:44;;;;;;;3.65;3.03;;;22.70;1.00;;;;;;5045375;28;20240;-76
2023/06/24 10:42:30;;;;;;;3.97;2.65;;;22.90;1.00;;;;;;5045234;28;20189;-75
2023/06/24 10:45:22;;;;;;;4.18;3.15;;;22.90;1.00;;;;;;5044415;28;20190;-75
2023/06/24 10:47:56;;;;;;;2.95;2.75;;;23.00;1.00;;;;;;5041469;28;20230;-75
2023/06/24 10:50:23;;;;;;;3.45;3.15;;;23.10;1.00;;;;;;5030388;28;20184;-75
2023/06/24 10:52:55;;;;;;;3.40;3.10;;;23.20;1.00;;;;;;5047994;28;20170;-75
2023/06/24 10:55:26;;;;;;;3.72;3.33;;;23.20;1.00;;;;;;5048273;28;20202;-76
2023/06/24 10:57:51;;;;;;;3.92;3.50;;;23.30;1.00;;;;;;5047784;28;20174;-76
2023/06/24 11:00:17;;;;;;;3.85;3.47;;;23.20;1.00;;;;;;5047112;28;20256;-75
2023/06/24 11:02:44;;;;;;;5.38;3.67;;;23.10;1.00;;;;;;5046322;28;20193;-76
2023/06/24 11:05:09;;;;;;;3.50;3.10;;;23.10;1.00;;;;;;5048213;28;20192;-74
2023/06/24 11:07:37;;;;;;;3.92;3.50;;;23.10;1.00;;;;;;5047443;28;20202;-74
2023/06/24 11:10:05;;;;;;;4.10;3.50;;;23.20;1.00;;;;;;5050181;28;20178;-73
2023/06/24 11:12:35;;;;;;;4.00;3.60;;;23.40;1.00;;;;;;5048013;28;20265;-74
2023/06/24 11:15:06;;;;;;;3.88;3.50;;;23.40;1.00;;;;;;5028489;28;20186;-74
2023/06/24 11:17:35;;;;;;;3.58;3.25;;;23.50;1.00;;;;;;5046499;28;20217;-75
2023/06/24 11:20:02;;;;;;;4.10;3.70;;;23.50;1.00;;;;;;5046433;28;20189;-75
2023/06/24 11:22:27;;;;;;;3.80;3.50;;;23.50;1.00;;;;;;5045048;28;20673;-74
2023/06/24 11:24:54;;;;;;;4.20;3.53;;;23.30;1.00;;;;;;5046092;28;20190;-74
2023/06/24 11:27:28;;;;;;;3.92;3.53;;;23.30;1.00;;;;;;5028325;28;20611;-75
2023/06/24 11:29:58;;;;;;;4.05;3.67;;;23.40;1.00;;;;;;5046398;28;20265;-75
2023/06/24 11:32:24;;;;;;;4.28;3.38;;;23.40;1.00;;;;;;5045252;28;20185;-76
2023/06/24 11:34:49;;;;;;;3.80;3.15;;;23.40;1.00;;;;;;5046293;28;20541;-76
2023/06/24 11:37:18;;;;;;;4.28;3.88;;;23.50;1.00;;;;;;5045746;28;20210;-75
2023/06/24 11:39:44;;;;;;;5.53;4.93;;;23.60;1.00;;;;;;5045707;28;20641;-75
2023/06/24 11:42:11;;;;;;;4.03;3.70;;;23.60;1.00;;;;;;5045088;28;20269;-74
2023/06/24 11:44:44;;;;;;;4.10;3.70;;;23.50;1.00;;;;;;5045462;28;20190;-76
2023/06/24 11:47:11;;;;;;;4.35;3.70;;;23.60;1.00;;;;;;5044031;28;20702;-74
2023/06/24 11:49:53;;;;;;;3.92;3.17;;;23.60;1.00;;;;;;5045301;28;20312;-75
2023/06/24 11:52:27;;;;;;;4.00;3.58;;;23.70;1.00;;;;;;5043836;28;20170;-75
2023/06/24 11:54:52;;;;;;;3.92;3.63;;;23.80;1.00;;;;;;5045991;28;20239;-76
2023/06/24 11:57:18;;;;;;;3.60;3.30;;;23.80;1.00;;;;;;5044219;28;20341;-76
2023/06/24 11:59:43;;;;;;;4.07;3.67;;;23.80;1.00;;;;;;5044874;28;21033;-76
2023/06/24 12:02:13;;;;;;;5.15;4.32;;;23.90;1.00;;;;;;5042514;28;20190;-76
2023/06/24 12:04:43;;;;;;;4.25;3.83;;;24.00;1.00;;;;;;5045708;28;20243;-75
2023/06/24 12:07:09;;;;;;;6.25;5.68;;;24.00;1.00;;;;;;5045328;28;20216;-76
2023/06/24 12:09:38;;;;;;;4.15;3.45;;;24.20;1.00;;;;;;5046177;28;20174;-74
2023/06/24 12:12:04;;;;;;;5.43;5.00;;;24.20;1.00;;;;;;5045227;28;20178;-78
2023/06/24 12:14:30;;;;;;;3.78;3.47;;;24.20;1.00;;;;;;5046445;28;20545;-74
2023/06/24 12:16:55;;;;;;;4.05;3.65;;;24.20;1.00;;;;;;5045718;28;20228;-74
2023/06/24 12:19:21;;;;;;;3.85;3.55;;;24.20;1.00;;;;;;5046227;28;20763;-73
2023/06/24 12:21:47;;;;;;;4.00;3.60;;;24.20;1.00;;;;;;5043136;28;20189;-77
2023/06/24 12:24:13;;;;;;;3.83;3.53;;;24.20;1.00;;;;;;5045242;28;20182;-77
2023/06/24 12:26:38;;;;;;;5.07;3.58;;;24.20;1.00;;;;;;5045944;28;20209;-77
2023/06/24 12:29:04;;;;;;;3.42;3.13;;;24.10;1.00;;;;;;5046057;28;20181;-73
2023/06/24 12:31:30;;;;;;;4.13;3.80;;;24.20;1.00;;;;;;5045151;28;20182;-77
2023/06/24 12:33:55;;;;;;;4.13;3.53;;;24.30;1.00;;;;;;5043924;28;20170;-74
2023/06/24 12:36:22;;;;;;;3.35;3.05;;;24.30;1.00;;;;;;5044778;28;20202;-76
2023/06/24 12:38:48;;;;;;;4.25;3.88;;;24.50;1.00;;;;;;5044718;28;20190;-76
2023/06/24 12:41:13;;;;;;;3.97;3.58;;;24.50;1.00;;;;;;5044498;28;20190;-74
2023/06/24 12:43:40;;;;;;;3.80;3.35;;;24.50;1.00;;;;;;5043488;28;20182;-76
2023/06/24 12:46:05;;;;;;;3.60;3.30;;;24.50;1.00;;;;;;5042914;28;20233;-75
2023/06/24 12:48:31;;;;;;;27.23;7.57;;;24.40;1.00;;;;;;5043202;28;20256;-75
2023/06/24 12:50:57;;;;;;;7.00;4.53;;;24.50;1.00;;;;;;5025700;28;20186;-77